Time;durP1;ratioP1;P1;durP2;ratioP2;P2;SDS_P1;SDS_P2;PMS_P1;PMS_P2;Temp;Humidity;BMP_temperature;BMP_pressure;BME280_temperature;BME280_humidity;BME280_pressure;Samples;Min_cycle;Max_cycle;Signal;HPM_P1;HPM_P2
2022/03/08 00:00:23;;;;;;;22.60;19.13;;;;;;;0.36;59.74;96940.91;5119514;28;20225;-53
2022/03/08 00:02:49;;;;;;;22.77;19.33;;;;;;;0.40;59.71;96933.81;5113998;28;20221;-53
2022/03/08 00:05:16;;;;;;;23.83;19.53;;;;;;;0.34;59.65;96927.16;5114829;28;20262;-54
2022/03/08 00:07:45;;;;;;;21.07;18.80;;;;;;;0.31;61.01;96926.47;5113759;28;20219;-54
2022/03/08 00:10:16;;;;;;;20.80;18.57;;;;;;;0.21;59.28;96922.63;5113683;28;20548;-53
2022/03/08 00:12:46;;;;;;;23.47;20.43;;;;;;;0.12;58.36;96929.09;5113919;28;20666;-55
2022/03/08 00:15:15;;;;;;;22.50;18.87;;;;;;;0.18;59.29;96923.59;5114427;28;20197;-54
2022/03/08 00:17:41;;;;;;;22.60;19.20;;;;;;;0.21;58.36;96922.63;5113717;28;20199;-55
2022/03/08 00:20:11;;;;;;;23.33;19.70;;;;;;;0.22;60.61;96924.28;5114164;28;20208;-53
2022/03/08 00:22:38;;;;;;;24.80;20.17;;;;;;;0.19;60.26;96921.84;5112564;28;20205;-54
2022/03/08 00:25:06;;;;;;;22.87;19.73;;;;;;;0.09;59.29;96918.00;5114722;28;20562;-54
2022/03/08 00:27:34;;;;;;;21.47;19.17;;;;;;;0.26;59.46;96920.63;5113845;28;20208;-53
2022/03/08 00:30:01;;;;;;;23.43;19.60;;;;;;;0.23;59.35;96915.56;5113851;28;20225;-53
2022/03/08 00:32:27;;;;;;;22.77;19.80;;;;;;;0.33;59.39;96914.22;5126818;28;20195;-53
2022/03/08 00:34:54;;;;;;;23.37;18.83;;;;;;;0.28;59.85;96914.44;5136495;28;20192;-53
2022/03/08 00:37:21;;;;;;;22.07;18.93;;;;;;;0.14;60.62;96908.22;5124139;28;20204;-54
2022/03/08 00:39:47;;;;;;;22.60;19.50;;;;;;;0.15;61.19;96907.28;5116322;28;20205;-52
2022/03/08 00:42:15;;;;;;;22.87;20.07;;;;;;;0.04;61.57;96912.19;5125493;28;20204;-55
2022/03/08 00:44:43;;;;;;;23.77;19.80;;;;;;;0.05;60.56;96906.91;5128143;28;20292;-54
2022/03/08 00:47:11;;;;;;;22.93;19.20;;;;;;;0.03;60.63;96903.53;5125013;28;20632;-54
2022/03/08 00:49:39;;;;;;;22.27;19.13;;;;;;;-0.07;60.20;96908.31;5125233;28;20663;-54
2022/03/08 00:52:07;;;;;;;23.37;19.67;;;;;;;-0.18;61.70;96902.75;5123791;28;20215;-55
2022/03/08 00:54:34;;;;;;;22.80;19.07;;;;;;;-0.10;61.83;96905.00;5121395;28;20649;-53
2022/03/08 00:57:00;;;;;;;22.10;19.20;;;;;;;-0.22;60.10;96903.00;5119476;28;20213;-55
2022/03/08 00:59:27;;;;;;;21.63;18.90;;;;;;;-0.22;60.06;96897.81;5119525;28;20628;-53
2022/03/08 01:01:55;;;;;;;22.60;19.17;;;;;;;-0.22;59.23;96898.66;5114521;28;20233;-55
2022/03/08 01:04:21;;;;;;;23.70;19.53;;;;;;;-0.13;61.55;96902.56;5113295;28;20226;-55
2022/03/08 01:06:48;;;;;;;21.83;19.20;;;;;;;-0.19;61.09;96906.31;5113181;28;20207;-54
2022/03/08 01:09:15;;;;;;;20.97;18.83;;;;;;;-0.11;62.05;96901.56;5113054;27;20649;-55
2022/03/08 01:11:42;;;;;;;21.83;19.20;;;;;;;-0.17;61.07;96886.28;5113515;28;20211;-55
2022/03/08 01:14:09;;;;;;;24.30;19.63;;;;;;;-0.14;60.40;96893.06;5114233;28;20207;-55
2022/03/08 01:16:36;;;;;;;24.40;20.17;;;;;;;-0.18;59.88;96881.97;5114008;28;20215;-54
2022/03/08 01:19:05;;;;;;;21.73;19.43;;;;;;;-0.15;61.90;96887.06;5113275;28;20205;-53
2022/03/08 01:21:32;;;;;;;22.83;18.97;;;;;;;-0.24;61.19;96881.44;5112821;28;20216;-54
2022/03/08 01:23:58;;;;;;;23.37;19.67;;;;;;;-0.14;61.17;96886.13;5113536;28;20226;-54
2022/03/08 01:26:25;;;;;;;23.93;20.67;;;;;;;-0.20;61.09;96889.00;5114230;28;20194;-54
2022/03/08 01:28:52;;;;;;;25.97;19.70;;;;;;;-0.21;60.85;96889.06;5112863;28;20202;-54
2022/03/08 01:31:19;;;;;;;21.07;18.87;;;;;;;-0.19;61.83;96893.31;5112784;28;20208;-53
2022/03/08 01:33:45;;;;;;;21.50;18.97;;;;;;;-0.41;61.02;96895.22;5112454;28;20207;-53
2022/03/08 01:36:14;;;;;;;25.03;20.27;;;;;;;-0.37;61.59;96896.75;5112796;28;20208;-55
2022/03/08 01:38:40;;;;;;;24.07;19.63;;;;;;;-0.49;62.20;96899.91;5112682;28;20207;-53
2022/03/08 01:41:07;;;;;;;22.20;19.03;;;;;;;-0.51;61.46;96901.75;5112957;27;20208;-54
2022/03/08 01:43:34;;;;;;;23.67;19.60;;;;;;;-0.56;61.40;96899.34;5112905;27;20219;-53
2022/03/08 01:46:00;;;;;;;21.87;18.77;;;;;;;-0.61;62.99;96895.28;5112449;28;20214;-54
2022/03/08 01:48:27;;;;;;;23.53;19.60;;;;;;;-0.64;63.05;96898.03;5111877;28;20220;-54
2022/03/08 01:50:53;;;;;;;21.60;19.20;;;;;;;-0.74;63.84;96894.13;5111958;28;20605;-55
2022/03/08 01:53:21;;;;;;;24.10;19.47;;;;;;;-0.70;63.13;96895.69;5112352;28;20550;-53
2022/03/08 01:55:48;;;;;;;29.03;20.87;;;;;;;-0.82;63.34;96888.44;5112336;28;20199;-55
2022/03/08 01:58:14;;;;;;;25.77;19.90;;;;;;;-0.85;63.13;96896.38;5111760;28;20215;-53
2022/03/08 02:00:41;;;;;;;22.93;19.77;;;;;;;-0.79;63.33;96890.91;5112424;28;20215;-55
2022/03/08 02:03:07;;;;;;;24.27;20.13;;;;;;;-0.69;63.09;96893.03;5111639;28;20557;-53
2022/03/08 02:05:34;;;;;;;22.97;19.33;;;;;;;-0.81;63.34;96884.91;5111961;28;20205;-54
2022/03/08 02:08:00;;;;;;;22.93;19.20;;;;;;;-0.83;62.42;96889.34;5111552;28;20203;-55
2022/03/08 02:10:28;;;;;;;23.20;19.30;;;;;;;-0.83;61.87;96881.56;5111712;28;20657;-54
2022/03/08 02:12:57;;;;;;;22.83;18.97;;;;;;;-0.85;61.74;96879.03;5111696;28;20216;-54
2022/03/08 02:15:26;;;;;;;23.57;19.00;;;;;;;-0.96;62.10;96877.84;5111820;28;20259;-53
2022/03/08 02:17:53;;;;;;;22.17;19.07;;;;;;;-0.93;63.34;96882.88;5111764;28;20295;-54
2022/03/08 02:20:20;;;;;;;23.13;19.13;;;;;;;-0.94;62.31;96881.19;5111142;28;20206;-53
2022/03/08 02:22:48;;;;;;;22.87;19.20;;;;;;;-0.89;62.95;96874.06;5111896;28;20227;-53
2022/03/08 02:25:16;;;;;;;22.00;19.10;;;;;;;-0.93;62.61;96873.34;5111668;28;20297;-52
2022/03/08 02:27:44;;;;;;;23.90;19.80;;;;;;;-0.87;62.22;96872.22;5112541;28;20222;-53
2022/03/08 02:30:11;;;;;;;23.50;19.40;;;;;;;-0.78;62.21;96866.63;5114009;28;20221;-54
2022/03/08 02:32:38;;;;;;;23.73;19.87;;;;;;;-0.83;61.61;96859.06;5115324;28;20543;-53
2022/03/08 02:35:06;;;;;;;24.77;19.53;;;;;;;-0.89;62.62;96863.69;5111424;28;20216;-54
2022/03/08 02:37:38;;;;;;;23.83;19.50;;;;;;;-0.83;61.74;96868.59;5112487;28;20214;-54
2022/03/08 02:40:07;;;;;;;24.77;19.60;;;;;;;-0.79;62.64;96864.94;5111943;28;20199;-54
2022/03/08 02:42:34;;;;;;;22.40;19.53;;;;;;;-0.86;60.69;96863.53;5112241;28;20238;-54
2022/03/08 02:45:00;;;;;;;24.17;20.10;;;;;;;-0.92;62.28;96866.41;5111461;28;20652;-54
2022/03/08 02:47:27;;;;;;;20.97;18.63;;;;;;;-0.86;62.29;96868.72;5115163;28;21458;-54
2022/03/08 02:49:53;;;;;;;22.73;18.80;;;;;;;-0.82;62.11;96859.91;5116728;28;20231;-55
2022/03/08 02:52:19;;;;;;;21.73;19.27;;;;;;;-0.98;60.51;96858.88;5118130;28;20202;-55
2022/03/08 02:54:46;;;;;;;21.40;18.13;;;;;;;-0.89;60.08;96863.69;5120646;28;20241;-54
2022/03/08 02:57:14;;;;;;;23.80;19.80;;;;;;;-0.93;60.93;96862.97;5123825;28;20297;-54
2022/03/08 02:59:40;;;;;;;22.47;18.63;;;;;;;-0.85;61.68;96863.44;5123526;28;20200;-55
2022/03/08 03:02:07;;;;;;;23.60;19.27;;;;;;;-0.92;61.13;96861.22;5124172;28;20242;-55
2022/03/08 03:04:34;;;;;;;23.77;18.77;;;;;;;-0.95;60.87;96856.13;5124696;28;20208;-55
2022/03/08 03:07:00;;;;;;;25.17;20.00;;;;;;;-1.05;62.12;96856.56;5124241;28;20243;-54
2022/03/08 03:09:27;;;;;;;22.87;19.23;;;;;;;-0.95;61.57;96850.94;5124488;28;20201;-54
2022/03/08 03:11:54;;;;;;;24.23;19.43;;;;;;;-0.90;61.89;96856.78;5126151;28;20207;-57
2022/03/08 03:14:22;;;;;;;23.83;19.60;;;;;;;-1.10;62.49;96849.91;5123654;28;20535;-55
2022/03/08 03:16:48;;;;;;;23.17;19.43;;;;;;;-1.09;61.20;96847.22;5125159;28;20201;-57
2022/03/08 03:19:14;;;;;;;23.00;19.73;;;;;;;-1.20;60.08;96859.81;5122759;27;20203;-54
2022/03/08 03:21:41;;;;;;;24.93;19.53;;;;;;;-1.21;59.79;96858.16;5120023;28;20197;-55
2022/03/08 03:24:08;;;;;;;22.13;18.97;;;;;;;-1.15;59.62;96851.84;5118277;28;20293;-55
2022/03/08 03:26:34;;;;;;;24.90;19.20;;;;;;;-1.07;61.23;96855.81;5119638;28;20616;-54
2022/03/08 03:29:01;;;;;;;27.57;19.43;;;;;;;-1.15;59.62;96851.84;5120652;28;20207;-57
2022/03/08 03:31:28;;;;;;;23.17;19.17;;;;;;;-1.07;61.00;96845.41;5119662;28;20227;-53
2022/03/08 03:33:55;;;;;;;21.57;19.07;;;;;;;-1.05;59.04;96847.94;5119798;28;20211;-55
2022/03/08 03:36:22;;;;;;;23.10;18.77;;;;;;;-1.06;60.12;96844.47;5114049;28;20623;-55
2022/03/08 03:38:48;;;;;;;24.20;19.50;;;;;;;-1.07;61.75;96845.41;5114778;28;20203;-54
2022/03/08 03:41:15;;;;;;;23.17;19.00;;;;;;;-1.10;61.79;96845.53;5114774;27;20191;-53
2022/03/08 03:43:41;;;;;;;23.37;18.67;;;;;;;-1.22;60.05;96846.09;5114200;28;20537;-54
2022/03/08 03:46:08;;;;;;;21.63;18.67;;;;;;;-1.15;60.90;96857.03;5114296;28;20209;-53
2022/03/08 03:48:36;;;;;;;23.40;19.93;;;;;;;-1.12;59.96;96857.75;5114524;28;20211;-55
2022/03/08 03:51:03;;;;;;;24.30;19.37;;;;;;;-1.15;59.54;96863.06;5114115;28;20227;-53
2022/03/08 03:53:30;;;;;;;23.67;18.83;;;;;;;-1.14;62.50;96864.75;5114415;28;20213;-55
2022/03/08 03:55:56;;;;;;;23.27;19.73;;;;;;;-1.15;62.63;96863.06;5114343;28;20200;-54
2022/03/08 03:58:23;;;;;;;23.13;19.07;;;;;;;-1.17;63.68;96862.28;5113900;28;20208;-54
2022/03/08 04:00:50;;;;;;;23.47;19.73;;;;;;;-1.17;63.68;96859.69;5114051;28;20512;-55
2022/03/08 04:03:18;;;;;;;25.80;20.40;;;;;;;-1.20;64.58;96859.81;5113915;28;20242;-54
2022/03/08 04:05:46;;;;;;;21.80;19.00;;;;;;;-1.25;64.12;96868.72;5113713;28;20227;-54
2022/03/08 04:08:13;;;;;;;23.77;19.53;;;;;;;-1.32;64.12;96865.56;5114026;28;20205;-53
2022/03/08 04:10:39;;;;;;;22.87;19.97;;;;;;;-1.34;64.12;96859.56;5113938;28;20233;-54
2022/03/08 04:13:06;;;;;;;25.37;19.50;;;;;;;-1.31;65.14;96856.84;5113704;28;20571;-55
2022/03/08 04:15:32;;;;;;;22.70;19.60;;;;;;;-1.34;62.67;96862.16;5112893;28;20222;-55
2022/03/08 04:17:59;;;;;;;23.33;19.80;;;;;;;-1.41;61.40;96855.56;5113394;28;20548;-54
2022/03/08 04:20:25;;;;;;;23.17;18.37;;;;;;;-1.30;62.08;96848.16;5113646;28;20213;-53
2022/03/08 04:22:53;;;;;;;24.47;19.73;;;;;;;-1.35;61.43;96844.94;5113249;28;20206;-54
2022/03/08 04:25:19;;;;;;;21.77;18.97;;;;;;;-1.34;62.07;96846.59;5113966;28;20211;-54
2022/03/08 04:27:46;;;;;;;23.70;19.63;;;;;;;-1.39;60.49;96843.38;5113929;28;20208;-55
2022/03/08 04:30:13;;;;;;;24.57;20.03;;;;;;;-1.36;61.38;96853.63;5114023;28;20240;-55
2022/03/08 04:32:39;;;;;;;23.83;19.57;;;;;;;-1.43;60.55;96848.75;5114122;28;20208;-55
2022/03/08 04:35:06;;;;;;;22.30;18.40;;;;;;;-1.45;60.25;96837.63;5112954;28;20217;-55
2022/03/08 04:37:33;;;;;;;26.20;19.80;;;;;;;-1.48;61.03;96846.34;5113946;28;20494;-54
2022/03/08 04:40:01;;;;;;;24.27;18.43;;;;;;;-1.46;61.27;96847.16;5113712;28;20595;-55
2022/03/08 04:42:27;;;;;;;23.30;18.47;;;;;;;-1.47;61.08;96840.25;5113950;28;20310;-55
2022/03/08 04:44:54;;;;;;;22.00;19.00;;;;;;;-1.36;60.81;96842.41;5116753;28;20196;-55
2022/03/08 04:47:20;;;;;;;21.87;18.30;;;;;;;-1.40;61.26;96841.69;5118381;28;20581;-54
2022/03/08 04:49:47;;;;;;;23.87;19.60;;;;;;;-1.42;61.66;96838.34;5114412;28;20203;-54
2022/03/08 04:52:14;;;;;;;23.43;19.83;;;;;;;-1.47;60.16;96840.25;5114350;28;20219;-55
2022/03/08 04:54:40;;;;;;;26.50;19.53;;;;;;;-1.42;61.47;96843.53;5114612;28;20197;-55
2022/03/08 04:57:08;;;;;;;22.97;18.73;;;;;;;-1.42;60.96;96843.53;5114779;28;20189;-54
2022/03/08 04:59:35;;;;;;;24.30;19.27;;;;;;;-1.38;61.86;96850.22;5121287;28;20210;-54
2022/03/08 05:02:01;;;;;;;25.83;21.17;;;;;;;-1.41;62.07;96847.78;5116916;28;20239;-53
2022/03/08 05:04:28;;;;;;;23.30;19.87;;;;;;;-1.34;61.44;96846.59;5113640;28;20217;-55
2022/03/08 05:06:55;;;;;;;24.03;19.57;;;;;;;-1.44;62.11;96850.50;5113385;28;20201;-54
2022/03/08 05:09:21;;;;;;;20.97;18.17;;;;;;;-1.34;62.49;96846.59;5112011;28;20214;-52
2022/03/08 05:11:48;;;;;;;24.53;19.67;;;;;;;-1.36;62.78;96853.63;5112774;28;20234;-54
2022/03/08 05:14:15;;;;;;;23.30;20.07;;;;;;;-1.43;63.58;96847.00;5111737;27;20210;-53
2022/03/08 05:16:42;;;;;;;22.13;19.00;;;;;;;-1.57;61.94;96842.41;5112176;28;20567;-54
2022/03/08 05:19:09;;;;;;;22.87;19.93;;;;;;;-1.58;63.52;96842.47;5112607;28;20208;-54
2022/03/08 05:21:36;;;;;;;23.67;19.47;;;;;;;-1.66;64.13;96841.94;5112388;28;20196;-54
2022/03/08 05:24:03;;;;;;;22.77;19.57;;;;;;;-1.70;64.92;96854.19;5111906;28;20643;-53
2022/03/08 05:26:29;;;;;;;21.77;18.30;;;;;;;-1.82;65.85;96851.28;5114359;28;20307;-55
2022/03/08 05:28:56;;;;;;;25.63;19.90;;;;;;;-1.88;65.05;96854.97;5131428;28;20208;-54
2022/03/08 05:31:24;;;;;;;29.27;19.70;;;;;;;-1.86;64.66;96857.47;5120954;28;20532;-53
2022/03/08 05:33:50;;;;;;;23.90;20.27;;;;;;;-1.99;65.04;96849.38;5112618;28;20209;-54
2022/03/08 05:36:17;;;;;;;26.30;20.70;;;;;;;-1.96;64.89;96851.00;5112628;28;20532;-54
2022/03/08 05:38:43;;;;;;;26.03;20.00;;;;;;;-2.01;66.11;96859.78;5112627;28;20202;-53
2022/03/08 05:41:10;;;;;;;24.50;19.77;;;;;;;-2.08;66.52;96853.16;5112835;28;20203;-54
2022/03/08 05:43:36;;;;;;;23.80;20.07;;;;;;;-2.09;66.75;96861.03;5112016;28;20210;-55
2022/03/08 05:46:03;;;;;;;26.20;20.10;;;;;;;-2.06;66.44;96866.94;5112126;28;20294;-53
2022/03/08 05:48:31;;;;;;;25.00;19.50;;;;;;;-2.13;65.94;96859.44;5112589;28;20205;-54
2022/03/08 05:50:57;;;;;;;24.43;19.83;;;;;;;-2.16;66.13;96860.41;5112152;28;20226;-53
2022/03/08 05:53:24;;;;;;;22.30;19.50;;;;;;;-2.21;67.00;96866.69;5112033;28;20544;-52
2022/03/08 05:55:51;;;;;;;27.47;21.13;;;;;;;-2.25;67.72;96868.53;5112092;28;20202;-54
2022/03/08 05:58:17;;;;;;;24.87;19.63;;;;;;;-2.27;67.18;96870.38;5112011;28;20205;-53
2022/03/08 06:00:44;;;;;;;23.77;19.67;;;;;;;-2.20;67.76;96865.78;5112345;28;21375;-54
2022/03/08 06:03:10;;;;;;;27.53;20.77;;;;;;;-2.32;68.26;96869.69;5111663;28;20235;-53
2022/03/08 06:05:38;;;;;;;25.73;19.47;;;;;;;-2.23;67.87;96869.31;5112150;28;20603;-55
2022/03/08 06:08:05;;;;;;;25.33;20.43;;;;;;;-2.26;68.04;96874.63;5112646;28;20203;-55
2022/03/08 06:10:32;;;;;;;28.20;19.83;;;;;;;-2.06;67.71;96876.44;5112832;28;20205;-54
2022/03/08 06:12:59;;;;;;;27.27;21.20;;;;;;;-1.97;65.56;96870.88;5111821;28;20201;-53
2022/03/08 06:15:25;;;;;;;24.53;20.23;;;;;;;-1.69;65.54;96870.59;5112286;28;20216;-53
2022/03/08 06:17:52;;;;;;;25.80;20.80;;;;;;;-1.88;65.93;96880.03;5112884;28;20213;-53
2022/03/08 06:20:19;;;;;;;24.37;20.23;;;;;;;-1.72;65.03;96881.09;5112500;28;20210;-53
2022/03/08 06:22:46;;;;;;;24.90;20.43;;;;;;;-1.79;66.00;96890.03;5111930;28;20638;-57
2022/03/08 06:25:13;;;;;;;25.60;20.53;;;;;;;-1.50;65.95;96887.06;5113034;28;20637;-55
2022/03/08 06:27:40;;;;;;;24.70;20.13;;;;;;;-1.20;63.44;96884.91;5116822;28;20208;-54
2022/03/08 06:30:08;;;;;;;22.53;19.40;;;;;;;-0.79;61.66;96885.72;5123196;28;20231;-55
2022/03/08 06:32:34;;;;;;;22.23;18.73;;;;;;;-0.52;61.38;96889.66;5119666;28;20231;-54
2022/03/08 06:35:01;;;;;;;22.17;19.63;;;;;;;-0.45;61.11;96883.28;5136106;28;20280;-56
2022/03/08 06:37:28;;;;;;;21.73;19.13;;;;;;;-0.14;60.16;96880.91;5129752;28;20210;-56
2022/03/08 06:39:56;;;;;;;23.20;19.47;;;;;;;0.17;57.88;96888.13;5112226;28;20205;-55
2022/03/08 06:42:23;;;;;;;22.43;19.83;;;;;;;0.35;57.72;96891.59;5112554;28;20213;-54
2022/03/08 06:44:51;;;;;;;25.20;19.63;;;;;;;0.27;57.25;96891.94;5112239;28;20206;-54
2022/03/08 06:47:18;;;;;;;22.17;19.27;;;;;;;0.43;57.06;96887.66;5111423;28;20226;-55
2022/03/08 06:49:44;;;;;;;25.70;20.10;;;;;;;0.66;55.07;96885.69;5111323;28;20271;-53
2022/03/08 06:52:12;;;;;;;22.73;19.70;;;;;;;0.69;55.28;96882.94;5110844;28;20226;-55
2022/03/08 06:54:39;;;;;;;22.97;20.47;;;;;;;0.71;54.59;96886.31;5111737;28;20218;-55
2022/03/08 06:57:08;;;;;;;21.53;19.23;;;;;;;0.69;55.56;96895.94;5112068;28;20275;-54
2022/03/08 06:59:35;;;;;;;22.00;19.40;;;;;;;0.45;55.12;96892.81;5111572;28;20210;-53
2022/03/08 07:02:01;;;;;;;22.50;18.70;;;;;;;0.45;56.02;96906.66;5111552;28;20244;-55
2022/03/08 07:04:28;;;;;;;23.20;20.27;;;;;;;0.17;56.09;96906.31;5110893;28;20208;-54
2022/03/08 07:06:57;;;;;;;21.40;18.93;;;;;;;0.28;55.74;96904.06;5112872;28;20221;-54
2022/03/08 07:09:25;;;;;;;22.83;18.93;;;;;;;0.18;56.75;96907.16;5111189;28;20232;-53
2022/03/08 07:11:52;;;;;;;21.83;19.27;;;;;;;0.12;56.24;96902.25;5110901;28;20218;-53
2022/03/08 07:14:22;;;;;;;20.87;18.53;;;;;;;0.15;56.95;96908.13;5110358;28;20205;-54
2022/03/08 07:16:49;;;;;;;22.60;18.87;;;;;;;0.11;56.92;96917.00;5110997;28;20498;-55
2022/03/08 07:19:16;;;;;;;24.67;20.13;;;;;;;0.21;56.40;96912.22;5112351;28;20209;-53
2022/03/08 07:21:44;;;;;;;24.80;20.33;;;;;;;0.30;56.79;96911.75;5111001;28;20205;-55
2022/03/08 07:24:11;;;;;;;22.90;18.57;;;;;;;0.24;56.24;96925.06;5108937;28;20232;-54
2022/03/08 07:26:38;;;;;;;22.27;18.67;;;;;;;0.38;56.04;96917.44;5111121;28;20208;-54
2022/03/08 07:29:04;;;;;;;22.20;19.10;;;;;;;0.23;57.30;96919.03;5111203;28;20218;-55
2022/03/08 07:31:32;;;;;;;24.93;19.37;;;;;;;0.24;56.22;96919.88;5111462;28;20673;-53
2022/03/08 07:33:59;;;;;;;25.57;20.27;;;;;;;0.19;54.77;96917.47;5116772;28;20223;-56
2022/03/08 07:36:26;;;;;;;22.57;19.50;;;;;;;0.16;55.73;96922.84;5114868;28;20242;-55
2022/03/08 07:38:53;;;;;;;24.63;19.40;;;;;;;-0.03;54.75;96930.66;5113815;28;20299;-55
2022/03/08 07:41:20;;;;;;;22.67;19.90;;;;;;;0.06;55.48;96923.34;5113471;28;20209;-55
2022/03/08 07:43:46;;;;;;;24.73;20.00;;;;;;;0.07;55.85;96933.69;5131606;28;20198;-55
2022/03/08 07:46:14;;;;;;;24.93;20.03;;;;;;;0.10;55.11;96932.69;5128872;28;20209;-54
2022/03/08 07:48:42;;;;;;;21.97;19.27;;;;;;;0.11;56.45;96929.19;5126369;27;20676;-55
2022/03/08 07:51:09;;;;;;;26.13;20.87;;;;;;;0.12;55.28;96936.03;5114964;28;20197;-54
2022/03/08 07:53:36;;;;;;;24.17;20.30;;;;;;;-0.12;55.15;96933.69;5114934;28;20624;-55
2022/03/08 07:56:03;;;;;;;22.07;19.43;;;;;;;0.10;55.64;96930.09;5113902;28;20632;-56
2022/03/08 07:58:30;;;;;;;25.80;20.23;;;;;;;0.08;55.68;96947.50;5113184;28;20194;-55
2022/03/08 08:00:57;;;;;;;23.77;20.53;;;;;;;0.20;56.21;96941.72;5113943;28;20233;-55
2022/03/08 08:03:24;;;;;;;26.60;20.60;;;;;;;0.17;55.32;96947.94;5112585;28;20200;-54
2022/03/08 08:05:52;;;;;;;23.50;19.93;;;;;;;0.18;54.79;96943.56;5113993;28;20198;-54
2022/03/08 08:08:18;;;;;;;23.40;19.77;;;;;;;0.23;55.55;96947.63;5114647;28;20214;-54
2022/03/08 08:10:45;;;;;;;25.07;20.33;;;;;;;0.25;55.80;96945.78;5113834;28;20528;-55
2022/03/08 08:13:11;;;;;;;22.20;19.80;;;;;;;0.29;55.81;96949.94;5113995;28;20240;-54
2022/03/08 08:15:39;;;;;;;25.03;21.13;;;;;;;0.44;57.05;96946.59;5114237;28;20206;-56
2022/03/08 08:18:06;;;;;;;25.00;20.97;;;;;;;0.46;54.97;96941.34;5114120;28;21247;-55
2022/03/08 08:20:33;;;;;;;26.70;20.77;;;;;;;0.42;55.07;96947.59;5113851;28;20223;-54
2022/03/08 08:23:01;;;;;;;24.63;19.77;;;;;;;0.38;55.02;96941.69;5113562;28;20205;-55
2022/03/08 08:25:27;;;;;;;25.17;20.67;;;;;;;0.53;55.58;96945.31;5114190;28;20226;-55
2022/03/08 08:27:54;;;;;;;24.47;20.93;;;;;;;0.65;54.95;96949.91;5114371;28;20209;-55
2022/03/08 08:30:20;;;;;;;23.43;20.93;;;;;;;0.77;55.45;96941.50;5113458;28;20300;-54
2022/03/08 08:32:50;;;;;;;23.97;19.77;;;;;;;0.81;54.69;96950.84;5114090;28;20230;-55
2022/03/08 08:35:17;;;;;;;25.50;21.23;;;;;;;0.56;55.11;96945.16;5112936;28;20593;-54
2022/03/08 08:37:43;;;;;;;25.10;20.70;;;;;;;0.72;55.28;96951.28;5112897;28;20328;-54
2022/03/08 08:40:12;;;;;;;31.77;21.33;;;;;;;0.86;55.95;96948.84;5112969;28;20210;-54
2022/03/08 08:42:39;;;;;;;26.47;21.37;;;;;;;1.03;54.23;96944.56;5114076;28;20216;-54
2022/03/08 08:45:08;;;;;;;24.10;21.50;;;;;;;1.05;54.81;96953.97;5113382;28;20206;-54
2022/03/08 08:47:34;;;;;;;24.90;21.43;;;;;;;1.13;55.04;96948.38;5114207;28;20207;-56
2022/03/08 08:50:01;;;;;;;23.73;20.73;;;;;;;1.25;54.80;96947.72;5116816;28;20215;-55
2022/03/08 08:52:27;;;;;;;23.77;21.03;;;;;;;1.28;54.32;96944.97;5126694;28;20252;-53
2022/03/08 08:54:56;;;;;;;26.60;21.57;;;;;;;1.40;54.49;96954.75;5129453;28;20631;-56
2022/03/08 08:57:24;;;;;;;26.73;21.97;;;;;;;1.17;54.53;96944.72;5112656;28;20688;-55
2022/03/08 08:59:50;;;;;;;26.33;21.77;;;;;;;1.42;54.59;96947.69;5123862;28;20196;-55
2022/03/08 09:02:17;;;;;;;24.80;21.13;;;;;;;1.47;54.16;96941.34;5130584;28;20224;-55
2022/03/08 09:04:43;;;;;;;25.83;22.20;;;;;;;1.63;53.64;96946.56;5131140;28;20214;-54
2022/03/08 09:07:10;;;;;;;26.37;22.13;;;;;;;1.72;53.92;96951.31;5113575;28;20219;-55
2022/03/08 09:09:36;;;;;;;28.00;22.83;;;;;;;1.91;53.11;96944.16;5112853;28;20199;-56
2022/03/08 09:12:03;;;;;;;27.60;21.90;;;;;;;2.00;53.22;96941.06;5113136;28;20247;-54
2022/03/08 09:14:31;;;;;;;26.50;22.23;;;;;;;2.08;52.88;96948.47;5113225;28;20205;-54
2022/03/08 09:16:57;;;;;;;28.60;22.97;;;;;;;2.21;52.42;96943.41;5111511;28;20204;-55
2022/03/08 09:19:23;;;;;;;26.63;21.40;;;;;;;2.41;51.97;96950.97;5112754;28;20208;-54
2022/03/08 09:21:50;;;;;;;28.53;23.90;;;;;;;2.48;52.01;96940.09;5112569;28;20768;-55
2022/03/08 09:24:16;;;;;;;27.67;22.67;;;;;;;2.85;51.38;96930.16;5112653;28;20219;-55
2022/03/08 09:26:43;;;;;;;27.50;23.67;;;;;;;2.97;51.12;96932.94;5112838;28;20648;-54
2022/03/08 09:29:10;;;;;;;25.80;22.73;;;;;;;3.05;50.44;96926.41;5112349;28;20219;-54
2022/03/08 09:31:38;;;;;;;27.37;23.17;;;;;;;3.56;50.18;96923.28;5112140;28;20221;-53
2022/03/08 09:34:04;;;;;;;25.63;22.83;;;;;;;4.08;48.88;96922.66;5112087;28;20760;-55
2022/03/08 09:36:31;;;;;;;25.30;22.60;;;;;;;4.26;48.88;96905.78;5112454;28;20203;-55
2022/03/08 09:38:58;;;;;;;25.97;23.17;;;;;;;3.85;48.36;96909.25;5112371;28;20219;-55
2022/03/08 09:41:25;;;;;;;27.07;22.67;;;;;;;4.21;47.47;96910.50;5112294;28;20284;-55
2022/03/08 09:43:51;;;;;;;25.60;22.73;;;;;;;4.26;47.46;96913.63;5111731;28;20622;-56
2022/03/08 09:46:18;;;;;;;28.50;23.13;;;;;;;4.54;47.32;96910.91;5112679;28;20220;-55
2022/03/08 09:48:46;;;;;;;25.93;22.43;;;;;;;4.90;47.09;96919.00;5112528;28;20209;-56
2022/03/08 09:51:14;;;;;;;26.87;23.03;;;;;;;5.48;46.51;96909.81;5111502;28;20209;-54
2022/03/08 09:53:41;;;;;;;28.00;23.83;;;;;;;5.58;45.13;96913.47;5113037;28;20225;-56
2022/03/08 09:56:07;;;;;;;26.13;23.33;;;;;;;5.97;44.32;96899.41;5112634;28;20529;-55
2022/03/08 09:58:36;;;;;;;24.83;22.23;;;;;;;6.37;43.63;96902.63;5112225;28;20209;-54
2022/03/08 10:01:02;;;;;;;24.53;21.93;;;;;;;6.58;43.32;96890.56;5116720;28;20205;-56
2022/03/08 10:03:34;;;;;;;24.90;22.20;;;;;;;6.69;41.80;96898.50;5116853;28;20208;-56
2022/03/08 10:06:03;;;;;;;26.90;24.00;;;;;;;7.04;42.52;96887.16;5116178;28;20205;-56
2022/03/08 10:08:29;;;;;;;27.60;23.03;;;;;;;6.95;41.39;96894.75;5119883;28;20209;-56
2022/03/08 10:10:59;;;;;;;25.60;22.83;;;;;;;6.96;42.28;96895.59;5119223;28;20192;-55
2022/03/08 10:13:28;;;;;;;25.80;22.70;;;;;;;7.00;41.01;96895.28;5113909;28;20228;-56
2022/03/08 10:16:13;;;;;;;26.20;23.50;;;;;;;7.75;40.72;96887.72;5111829;28;20312;-56
2022/03/08 10:18:42;;;;;;;26.27;23.57;;;;;;;8.49;40.18;96888.84;5116731;28;20521;-54
2022/03/08 10:21:28;;;;;;;27.30;22.10;;;;;;;8.14;40.62;96880.28;5116377;28;20197;-55
2022/03/08 10:23:56;;;;;;;27.10;24.43;;;;;;;8.01;38.97;96880.41;5118521;28;20213;-54
2022/03/08 10:26:22;;;;;;;26.57;23.67;;;;;;;8.18;39.72;96876.44;5117169;28;20282;-56
2022/03/08 10:28:50;;;;;;;27.27;23.43;;;;;;;8.16;39.75;96867.81;5111931;28;20201;-54
2022/03/08 10:31:17;;;;;;;27.10;23.17;;;;;;;8.56;39.36;96868.94;5112447;28;20211;-55
2022/03/08 10:33:48;;;;;;;25.70;23.00;;;;;;;8.59;39.41;96868.69;5112316;28;20225;-56
2022/03/08 10:36:17;;;;;;;27.10;24.40;;;;;;;8.72;38.35;96866.72;5111888;28;20197;-55
2022/03/08 10:39:10;;;;;;;27.93;23.87;;;;;;;8.44;38.74;96873.41;5112123;28;20397;-57
2022/03/08 10:41:48;;;;;;;26.27;23.50;;;;;;;8.09;39.75;96877.16;5111759;28;20201;-56
2022/03/08 10:44:17;;;;;;;26.63;23.87;;;;;;;8.48;39.38;96868.72;5111870;28;20296;-55
2022/03/08 10:46:59;;;;;;;25.20;22.60;;;;;;;8.60;39.47;96867.72;5111752;28;20652;-56
2022/03/08 10:49:25;;;;;;;26.43;23.63;;;;;;;9.00;38.03;96865.25;5111833;28;20185;-56
2022/03/08 10:51:59;;;;;;;26.50;23.43;;;;;;;8.86;39.69;96865.56;5112090;28;20205;-55
2022/03/08 10:54:27;;;;;;;27.13;23.60;;;;;;;9.29;36.21;96870.72;5111839;28;20197;-56
2022/03/08 10:56:53;;;;;;;27.00;24.40;;;;;;;9.36;37.12;96874.53;5111203;28;20542;-55
2022/03/08 10:59:20;;;;;;;29.83;23.23;;;;;;;9.58;37.08;96869.09;5111770;28;20209;-56
2022/03/08 11:01:47;;;;;;;25.17;22.67;;;;;;;9.67;37.26;96865.66;5111049;28;20236;-56
2022/03/08 11:04:19;;;;;;;26.03;23.43;;;;;;;10.16;38.05;96866.72;5111097;28;20536;-54
2022/03/08 11:06:47;;;;;;;25.20;22.60;;;;;;;10.02;36.04;96884.56;5110168;28;20213;-55
2022/03/08 11:09:14;;;;;;;26.70;23.90;;;;;;;10.58;34.99;96876.13;5115520;28;20209;-56
2022/03/08 11:11:42;;;;;;;24.80;22.33;;;;;;;10.70;34.26;96876.84;5115973;28;20252;-55
2022/03/08 11:14:09;;;;;;;24.73;22.13;;;;;;;11.05;33.71;96871.84;5115425;28;20225;-54
2022/03/08 11:16:35;;;;;;;26.07;23.17;;;;;;;11.66;34.11;96864.31;5114877;28;20262;-55
2022/03/08 11:19:02;;;;;;;25.90;23.10;;;;;;;12.01;32.81;96866.31;5115554;28;20201;-54
2022/03/08 11:21:29;;;;;;;25.83;23.23;;;;;;;11.44;32.83;96864.69;5114711;28;20201;-58